METAR Data
IDs: Format: Raw Decoded Include TAF

Data at: 2300 UTC 10 May 2021

KSBS 102255Z AUTO 12005KT 10SM BKN020 BKN025 BKN110 03/03 A3000 RMK AO1 T00320032
KSBS 102235Z AUTO 11004KT 10SM BKN012 OVC018 02/02 A3002 RMK AO1 T00230023
KSBS 102215Z AUTO 00000KT 1 1/4SM BKN012 BKN020 OVC027 01/01 A3002 RMK AO1 T00120012
KSBS 102155Z AUTO 32005KT 7SM SCT021 BKN028 OVC042 02/02 A3000 RMK AO1 T00220020
KSBS 102135Z AUTO 33015KT 10SM SCT019 BKN038 OVC060 04/04 A3000 RMK AO1 T00420038
KSBS 102115Z AUTO 30007KT 10SM SCT014 SCT020 BKN031 05/05 A3000 RMK AO1 T00470045
KSBS 102055Z AUTO 30006KT 7SM SCT014 BKN022 OVC027 04/02 A2999 RMK AO1 T00420022
KSBS 102035Z AUTO 27005KT 10SM BKN026 BKN036 OVC045 05/00 A2999 RMK AO1 T00530004
KSBS 102015Z AUTO 33004KT 10SM SCT036 BKN045 OVC050 06/00 A2998 RMK AO1 T00601002
KSBS 101955Z AUTO 36010KT 10SM BKN031 OVC041 05/01 A2998 RMK AO1 T00460009
KSBS 101935Z AUTO 32012KT 7SM BKN031 BKN037 OVC043 05/01 A2998 RMK AO1 T00450009
KSBS 101915Z AUTO 23007KT 10SM BKN033 OVC047 06/00 A2997 RMK AO1 T00631001
KSBS 101855Z AUTO 17006KT 10SM BKN033 OVC044 06/00 A2997 RMK AO1 T00610004
KSBS 101835Z AUTO 09003KT 10SM SCT033 BKN042 OVC049 07/M01 A2997 RMK AO1 T00711009
KSBS 101815Z AUTO 10008KT 10SM OVC033 07/M01 A2997 RMK AO1 T00711006
KSBS 101755Z AUTO 08007KT 10SM OVC033 07/M01 A2998 RMK AO1 T00721007 10088 20021
KSBS 101735Z AUTO 13009KT 10SM SCT031 SCT038 BKN044 07/M01 A2998 RMK AO1 T00741006
KSBS 101715Z AUTO 18005KT 10SM SCT050 SCT075 08/M02 A2999 RMK AO1 T00751018
KSBS 101655Z AUTO 20008KT 10SM SCT075 07/M02 A2999 RMK AO1 T00721019
KSBS 101635Z AUTO 23007KT 10SM SCT045 SCT075 SCT100 07/M02 A3000 RMK AO1 T00681019
KSBS 101615Z AUTO 10003KT 10SM SCT041 SCT047 BKN100 06/M01 A3000 RMK AO1 T00621013
KSBS 101555Z AUTO 00000KT 10SM OVC043 05/M02 A3000 RMK AO1 T00491016
KSBS 101535Z AUTO 00000KT 10SM SCT039 OVC046 05/M02 A3000 RMK AO1 T00471016
KSBS 101515Z AUTO 00000KT 10SM OVC044 04/M02 A3000 RMK AO1 T00431019
KSBS 101455Z AUTO 00000KT 10SM OVC042 04/M02 A3001 RMK AO1 T00371020
KSBS 101435Z AUTO 00000KT 10SM OVC044 03/M02 A3001 RMK AO1 T00331020
KSBS 101415Z AUTO 00000KT 10SM SCT029 OVC046 03/M02 A3002 RMK AO1 T00271020
KSBS 101355Z AUTO 00000KT 10SM OVC046 03/M02 A3002 RMK AO1 T00251020
KSBS 101335Z AUTO 31005KT 10SM SCT033 OVC048 03/M02 A3001 RMK AO1 T00251020
KSBS 101315Z AUTO 32003KT 10SM OVC033 02/M02 A3000 RMK AO1 T00231020
KSBS 101255Z AUTO 32003KT 10SM OVC035 02/M01 A3000 RMK AO1 T00221013
KSBS 101235Z AUTO 00000KT 10SM OVC039 02/M01 A3000 RMK AO1 T00211008
KSBS 101215Z AUTO 18003KT 10SM OVC039 02/M01 A3000 RMK AO1 T00231013
KSBS 101155Z AUTO 06006KT 10SM BKN039 OVC046 03/M02 A3000 RMK AO1 T00291020 10052 20025
KSBS 101135Z AUTO 08006KT 10SM OVC042 03/M02 A3000 RMK AO1 T00281020
KSBS 101115Z AUTO 08008KT 10SM OVC044 03/M01 A3000 RMK AO1 T00251014
KSBS 101055Z AUTO 09005KT 10SM SCT031 SCT037 OVC046 03/M01 A3001 RMK AO1 T00281008
KSBS 101035Z AUTO 00000KT 10SM SCT031 BKN038 OVC045 04/M03 A3000 RMK AO1 T00361028
KSBS 101015Z AUTO 07007KT 10SM BKN045 BKN055 OVC075 04/M03 A3000 RMK AO1 T00361029
KSBS 100955Z AUTO 07004KT 10SM SCT055 OVC075 04/M03 A3000 RMK AO1 T00351035
KSBS 100935Z AUTO 05004KT 10SM BKN075 OVC085 04/M04 A3000 RMK AO1 T00371037
KSBS 100915Z AUTO 00000KT 10SM OVC085 03/M04 A3000 RMK AO1 T00311039
KSBS 100855Z AUTO 09004KT 10SM OVC095 04/M04 A3000 RMK AO1 T00351041
KSBS 100835Z AUTO 07006KT 10SM BKN095 03/M04 A3000 RMK AO1 T00341041
KSBS 100815Z AUTO 08005KT 10SM SCT095 04/M04 A3000 RMK AO1 T00351041
KSBS 100755Z AUTO 06008KT 10SM SCT090 03/M04 A3000 RMK AO1 T00301040
KSBS 100735Z AUTO 07006KT 10SM BKN090 OVC110 04/M04 A3000 RMK AO1 T00351039
KSBS 100715Z AUTO 05006KT 10SM SCT060 BKN070 OVC110 05/M04 A3001 RMK AO1 T00451039
KSBS 100655Z AUTO 07004KT 10SM OVC080 04/M04 A3002 RMK AO1 T00441042
KSBS 100635Z AUTO 09007KT 10SM OVC090 05/M04 A3002 RMK AO1 T00451043
KSBS 100615Z AUTO 06010KT 10SM OVC100 05/M04 A3001 RMK AO1 T00481045
KSBS 100555Z AUTO 06008KT 10SM OVC090 05/M05 A3001 RMK AO1 T00511048 10095 20050
KSBS 100535Z AUTO 09006KT 10SM OVC090 05/M05 A3001 RMK AO1 T00531048
KSBS 100515Z AUTO 08006KT 10SM OVC090 06/M06 A3002 RMK AO1 T00551056
KSBS 100455Z AUTO 12004KT 10SM BKN080 OVC110 06/M06 A3002 RMK AO1 T00571060 401131030
KSBS 100435Z AUTO 08007KT 10SM OVC080 06/M06 A3002 RMK AO1 T00611060
KSBS 100415Z AUTO 07005KT 10SM OVC080 07/M06 A3002 RMK AO1 T00651061
KSBS 100355Z AUTO 08006KT 10SM SCT070 OVC100 07/M06 A3002 RMK AO1 T00651062
KSBS 100335Z AUTO 10006KT 10SM OVC100 07/M06 A3002 RMK AO1 T00671063
KSBS 100315Z AUTO 10010KT 10SM SCT060 BKN075 OVC100 07/M07 A3001 RMK AO1 T00721068
KSBS 100255Z AUTO 00000KT 10SM SCT060 BKN075 OVC090 08/M08 A3002 RMK AO1 T00771080
KSBS 100235Z AUTO 21006KT 10SM OVC090 07/M07 A3001 RMK AO1 T00741073
KSBS 100215Z AUTO 21003KT 10SM SCT075 OVC090 08/M08 A3000 RMK AO1 T00771077
KSBS 100155Z AUTO 24003KT 10SM OVC090 08/M07 A3000 RMK AO1 T00771075
KSBS 100135Z AUTO 24005KT 10SM OVC090 08/M08 A3000 RMK AO1 T00811084
KSBS 100115Z AUTO 23006KT 10SM OVC090 09/M09 A2999 RMK AO1 T00861091
KSBS 100055Z AUTO 23006KT 10SM OVC090 09/M10 A2999 RMK AO1 T00901096
KSBS 100035Z AUTO 26007G17KT 10SM SCT075 OVC090 09/M10 A2999 RMK AO1 T00921100
KSBS 100015Z AUTO 22005KT 10SM SCT048 SCT060 OVC090 10/M10 A2998 RMK AO1 T00951105
KSBS 092355Z AUTO 18008G18KT 10SM OVC090 10/M10 A2998 RMK AO1 T00951099 10113 20078
KSBS 092335Z AUTO 24008G11KT 10SM BKN090 10/M11 A2997 RMK AO1 T01021107
KSBS 092315Z AUTO 25009G19KT 10SM SCT100 11/M10 A2997 RMK AO1 T01061103
KSBS 092255Z AUTO 27011G16KT 10SM BKN100 BKN120 11/M11 A2996 RMK AO1 T01051110
KSBS 092235Z AUTO 27006G14KT 10SM BKN100 11/M11 A2997 RMK AO1 T01071110
KSBS 092215Z AUTO 26010G19KT 10SM BKN090 10/M11 A2997 RMK AO1 T01041113
KSBS 092155Z AUTO 25010G14KT 10SM BKN100 11/M11 A2997 RMK AO1 T01121106
KSBS 092135Z AUTO 25008G19KT 10SM OVC100 11/M12 A2997 RMK AO1 T01051121
KSBS 092115Z AUTO 24009G14KT 10SM BKN100 11/M12 A2998 RMK AO1 T01061121
KSBS 092055Z AUTO 26008G14KT 10SM BKN100 11/M12 A2998 RMK AO1 T01101118
KSBS 092035Z AUTO 26013G23KT 10SM SCT090 SCT120 11/M13 A2998 RMK AO1 T01081128
KSBS 092015Z AUTO 24012G20KT 10SM SCT110 11/M12 A2999 RMK AO1 T01101122
KSBS 091955Z AUTO 20004KT 10SM SCT110 10/M13 A2999 RMK AO1 T01021128
KSBS 091935Z AUTO 26010KT 10SM CLR 10/M12 A3000 RMK AO1 T00981118
KSBS 091915Z AUTO 23007KT 10SM CLR 10/M12 A3000 RMK AO1 T00961119
KSBS 091855Z AUTO 14003KT 10SM CLR 10/M11 A3001 RMK AO1 T00951115
KSBS 091835Z AUTO 18005KT 10SM CLR 09/M11 A3002 RMK AO1 T00871115
KSBS 091815Z AUTO 27006KT 10SM CLR 08/M12 A3003 RMK AO1 T00801116
KSBS 091755Z AUTO 27006KT 10SM CLR 08/M12 A3004 RMK AO1 T00791121 10079 21030
KSBS 091735Z AUTO 21006KT 10SM CLR 07/M12 A3004 RMK AO1 T00741121
KSBS 091715Z AUTO 24004KT 10SM CLR 07/M12 A3005 RMK AO1 T00721123
KSBS 091655Z AUTO 00000KT 10SM CLR 07/M12 A3006 RMK AO1 T00681120
KSBS 091635Z AUTO 22005KT 10SM CLR 07/M11 A3006 RMK AO1 T00691109
KSBS 091615Z AUTO 22004KT 10SM SCT120 06/M11 A3006 RMK AO1 T00641108
KSBS 091555Z AUTO 25003KT 10SM SCT120 06/M11 A3007 RMK AO1 T00581107
KSBS 091535Z AUTO 00000KT 10SM SCT120 05/M10 A3007 RMK AO1 T00501105
KSBS 091515Z AUTO 05003KT 10SM CLR 05/M11 A3008 RMK AO1 T00481106
KSBS 091455Z AUTO 12003KT 10SM CLR 04/M08 A3008 RMK AO1 T00441082
KSBS 091435Z AUTO 07003KT 10SM CLR 03/M08 A3009 RMK AO1 T00301082
KSBS 091415Z AUTO 00000KT 10SM CLR 00/M07 A3010 RMK AO1 T00031075
KSBS 091355Z AUTO 00000KT 10SM CLR M01/M07 A3009 RMK AO1 T10101075
KSBS 091335Z AUTO 00000KT 10SM CLR M01/M08 A3008 RMK AO1 T10061083
KSBS 091315Z AUTO 00000KT 10SM CLR M02/M08 A3008 RMK AO1 T10231085
KSBS 091255Z AUTO 09003KT 10SM CLR M02/M08 A3008 RMK AO1 T10241081
KSBS 091235Z AUTO 00000KT 10SM CLR M03/M10 A3008 RMK AO1 T10291099
KSBS 091215Z AUTO 00000KT 10SM CLR M03/M09 A3008 RMK AO1 T10271093
KSBS 091155Z AUTO 00000KT 10SM CLR M03/M10 A3008 RMK AO1 T10281100 10017 21028
KSBS 091135Z AUTO 10003KT 10SM CLR M02/M09 A3008 RMK AO1 T10211095
KSBS 091115Z AUTO 00000KT 10SM CLR M02/M09 A3008 RMK AO1 T10191095